Time,TemperatureF,DewpointF,PressureIn,WindDirection,WindDirectionDegrees,WindSpeedMPH,WindSpeedGustMPH,Humidity,HourlyPrecipIn,Conditions,Clouds,dailyrainin,SolarRadiationWatts/m^2,SoftwareType,DateUTC
2013-05-25 00:22:00,43.0,36.0,-100.00,ENE,73,1.0,2.0,75,0.00,,,0.00,2.000000,,2013-05-25 08:22:00,
2013-05-25 00:42:00,43.0,36.0,-100.00,ENE,73,1.0,2.0,75,0.00,,,0.00,2.000000,,2013-05-25 08:42:00,
2013-05-25 00:51:00,43.0,36.0,-100.00,ENE,73,1.0,2.0,75,0.00,,,0.00,2.000000,,2013-05-25 08:51:00,
2013-05-25 01:21:00,39.0,34.0,-100.00,East,99,1.0,5.0,81,0.00,,,0.00,0.000000,,2013-05-25 09:21:00,
2013-05-25 02:22:00,36.0,32.0,-100.00,East,89,2.0,3.0,84,-99.99,,,0.00,0.000000,,2013-05-25 10:22:00,
2013-05-25 03:21:00,35.0,31.0,-100.00,ENE,74,2.0,5.0,84,-99.99,,,0.00,0.000000,,2013-05-25 11:21:00,
2013-05-25 04:22:00,33.0,29.0,-100.00,East,92,2.0,4.0,86,-99.99,,,0.00,0.000000,,2013-05-25 12:22:00,
2013-05-25 05:21:00,31.0,28.0,-100.00,ESE,102,1.0,3.0,88,-99.99,,,0.00,1.000000,,2013-05-25 13:21:00,
2013-05-25 06:22:00,31.0,28.0,-100.00,East,93,0.0,2.0,88,-99.99,,,0.00,12.000000,,2013-05-25 14:22:00,
2013-05-25 07:22:00,35.0,32.0,-100.00,East,95,1.0,4.0,87,-99.99,,,0.00,29.000000,,2013-05-25 15:22:00,
2013-05-25 08:23:00,46.0,40.0,-100.00,NW,321,2.0,5.0,78,-99.99,,,0.00,67.000000,,2013-05-25 16:23:00,
2013-05-25 08:32:00,46.0,40.0,-100.00,NW,321,2.0,5.0,78,-99.99,,,0.00,67.000000,,2013-05-25 16:32:00,
2013-05-25 08:42:00,46.0,40.0,-100.00,NW,321,2.0,5.0,78,-99.99,,,0.00,67.000000,,2013-05-25 16:42:00,
2013-05-25 08:52:00,46.0,40.0,-100.00,NW,321,2.0,5.0,78,-99.99,,,0.00,67.000000,,2013-05-25 16:52:00,
2013-05-25 09:22:00,56.0,37.0,-100.00,West,268,3.0,6.0,49,0.00,,,0.00,242.000000,,2013-05-25 17:22:00,
2013-05-25 09:32:00,56.0,37.0,-100.00,West,268,3.0,6.0,49,0.00,,,0.00,242.000000,,2013-05-25 17:32:00,
2013-05-25 09:41:00,56.0,37.0,-100.00,West,268,3.0,6.0,49,0.00,,,0.00,242.000000,,2013-05-25 17:41:00,
2013-05-25 09:52:00,56.0,37.0,-100.00,West,268,3.0,6.0,49,0.00,,,0.00,242.000000,,2013-05-25 17:52:00,
2013-05-25 10:21:00,59.0,35.0,-100.00,NW,307,3.0,8.0,41,0.00,,,0.00,395.000000,,2013-05-25 18:21:00,
2013-05-25 10:32:00,59.0,35.0,-100.00,NW,307,3.0,8.0,41,0.00,,,0.00,395.000000,,2013-05-25 18:32:00,
2013-05-25 10:42:00,59.0,35.0,-100.00,NW,307,3.0,8.0,41,0.00,,,0.00,395.000000,,2013-05-25 18:42:00,
2013-05-25 10:51:00,59.0,35.0,-100.00,NW,307,3.0,8.0,41,0.00,,,0.00,395.000000,,2013-05-25 18:51:00,
2013-05-25 11:21:00,61.0,36.0,-100.00,WNW,298,5.0,9.0,40,0.00,,,0.00,514.000000,,2013-05-25 19:21:00,
2013-05-25 11:31:00,61.0,36.0,-100.00,WNW,298,5.0,9.0,40,0.00,,,0.00,514.000000,,2013-05-25 19:31:00,
2013-05-25 11:41:00,61.0,36.0,-100.00,WNW,298,5.0,9.0,40,0.00,,,0.00,514.000000,,2013-05-25 19:41:00,
2013-05-25 11:52:00,61.0,36.0,-100.00,WNW,298,5.0,9.0,40,0.00,,,0.00,514.000000,,2013-05-25 19:52:00,
2013-05-25 12:21:00,62.0,36.0,-100.00,WNW,298,6.0,10.0,38,0.00,,,0.00,601.000000,,2013-05-25 20:21:00,
2013-05-25 12:32:00,62.0,36.0,-100.00,WNW,298,6.0,10.0,38,0.00,,,0.00,601.000000,,2013-05-25 20:32:00,
2013-05-25 12:42:00,62.0,36.0,-100.00,WNW,298,6.0,10.0,38,0.00,,,0.00,601.000000,,2013-05-25 20:42:00,
2013-05-25 12:52:00,62.0,36.0,-100.00,WNW,298,6.0,10.0,38,0.00,,,0.00,601.000000,,2013-05-25 20:52:00,
2013-05-25 13:21:00,64.0,38.0,-100.00,WNW,289,5.0,10.0,38,0.00,,,0.00,657.000000,,2013-05-25 21:21:00,
2013-05-25 13:33:00,64.0,38.0,-100.00,WNW,289,5.0,10.0,38,0.00,,,0.00,657.000000,,2013-05-25 21:33:00,
2013-05-25 13:43:00,64.0,38.0,-100.00,WNW,289,5.0,10.0,38,0.00,,,0.00,657.000000,,2013-05-25 21:43:00,
2013-05-25 13:53:00,64.0,38.0,-100.00,WNW,289,5.0,10.0,38,0.00,,,0.00,657.000000,,2013-05-25 21:53:00,
2013-05-25 14:22:00,66.0,36.0,-100.00,WSW,257,5.0,10.0,33,0.00,,,0.00,701.000000,,2013-05-25 22:22:00,
2013-05-25 14:32:00,66.0,36.0,-100.00,WSW,257,5.0,10.0,33,0.00,,,0.00,701.000000,,2013-05-25 22:32:00,
2013-05-25 14:42:00,66.0,36.0,-100.00,WSW,257,5.0,10.0,33,0.00,,,0.00,701.000000,,2013-05-25 22:42:00,
2013-05-25 14:52:00,66.0,36.0,-100.00,WSW,257,5.0,10.0,33,0.00,,,0.00,701.000000,,2013-05-25 22:52:00,
2013-05-25 15:21:00,69.0,36.0,-100.00,WNW,287,5.0,12.0,30,0.00,,,0.00,708.000000,,2013-05-25 23:21:00,
2013-05-25 15:32:00,69.0,36.0,-100.00,WNW,287,5.0,12.0,30,0.00,,,0.00,708.000000,,2013-05-25 23:32:00,
2013-05-25 15:42:00,69.0,36.0,-100.00,WNW,287,5.0,12.0,30,0.00,,,0.00,708.000000,,2013-05-25 23:42:00,
2013-05-25 15:52:00,69.0,36.0,-100.00,WNW,287,5.0,12.0,30,0.00,,,0.00,708.000000,,2013-05-25 23:52:00,
2013-05-25 16:21:00,72.0,37.0,-100.00,East,90,3.0,12.0,28,0.00,,,0.00,686.000000,,2013-05-26 00:21:00,
2013-05-25 16:31:00,72.0,37.0,-100.00,East,90,3.0,12.0,28,0.00,,,0.00,686.000000,,2013-05-26 00:31:00,
2013-05-25 16:42:00,72.0,37.0,-100.00,East,90,3.0,12.0,28,0.00,,,0.00,686.000000,,2013-05-26 00:42:00,
2013-05-25 16:52:00,72.0,37.0,-100.00,East,90,3.0,12.0,28,0.00,,,0.00,686.000000,,2013-05-26 00:52:00,
2013-05-25 17:21:00,70.0,28.0,-100.00,ESE,119,6.0,15.0,21,0.00,,,0.00,634.000000,,2013-05-26 01:21:00,
2013-05-25 17:32:00,70.0,28.0,-100.00,ESE,119,6.0,15.0,21,0.00,,,0.00,634.000000,,2013-05-26 01:32:00,
2013-05-25 17:42:00,70.0,28.0,-100.00,ESE,119,6.0,15.0,21,0.00,,,0.00,634.000000,,2013-05-26 01:42:00,
2013-05-25 17:52:00,70.0,28.0,-100.00,ESE,119,6.0,15.0,21,0.00,,,0.00,634.000000,,2013-05-26 01:52:00,
2013-05-25 18:21:00,70.0,28.0,-100.00,ESE,116,5.0,14.0,21,0.00,,,0.00,550.000000,,2013-05-26 02:21:00,
2013-05-25 18:32:00,70.0,28.0,-100.00,ESE,116,5.0,14.0,21,0.00,,,0.00,550.000000,,2013-05-26 02:32:00,
2013-05-25 18:41:00,70.0,28.0,-100.00,ESE,116,5.0,14.0,21,0.00,,,0.00,550.000000,,2013-05-26 02:41:00,
2013-05-25 18:52:00,70.0,28.0,-100.00,ESE,116,5.0,14.0,21,0.00,,,0.00,550.000000,,2013-05-26 02:52:00,
2013-05-25 19:21:00,69.0,29.0,-100.00,ESE,112,5.0,12.0,22,0.00,,,0.00,445.000000,,2013-05-26 03:21:00,
2013-05-25 19:33:00,69.0,29.0,-100.00,ESE,112,5.0,12.0,22,0.00,,,0.00,445.000000,,2013-05-26 03:33:00,
2013-05-25 19:42:00,69.0,29.0,-100.00,ESE,112,5.0,12.0,22,0.00,,,0.00,445.000000,,2013-05-26 03:42:00,
2013-05-25 19:53:00,69.0,29.0,-100.00,ESE,112,5.0,12.0,22,0.00,,,0.00,445.000000,,2013-05-26 03:53:00,
2013-05-25 20:23:00,67.0,25.0,-100.00,SE,146,4.0,13.0,20,0.00,,,0.00,332.000000,,2013-05-26 04:23:00,
2013-05-25 20:33:00,67.0,25.0,-100.00,SE,146,4.0,13.0,20,0.00,,,0.00,332.000000,,2013-05-26 04:33:00,
2013-05-25 20:42:00,67.0,25.0,-100.00,SE,146,4.0,13.0,20,0.00,,,0.00,332.000000,,2013-05-26 04:42:00,
2013-05-25 20:52:00,67.0,25.0,-100.00,SE,146,4.0,13.0,20,0.00,,,0.00,332.000000,,2013-05-26 04:52:00,
2013-05-25 21:22:00,66.0,19.0,-100.00,South,184,2.0,12.0,16,0.00,,,0.00,219.000000,,2013-05-26 05:22:00,
2013-05-25 22:21:00,59.0,19.0,-100.00,South,183,1.0,9.0,21,0.00,,,0.00,107.000000,,2013-05-26 06:21:00,
2013-05-25 23:21:00,50.0,25.0,-100.00,NE,44,1.0,4.0,37,0.00,,,0.00,20.000000,,2013-05-26 07:21:00,